Vision — WDF6306 — position and weather

sailwx.info

Track history (hours):
 
Tides and Currents Weather Stations Pressure Air Temp Water Temp Dewpoint Dewpoint Depression Visibility Wind Speed Wind Dir Waves Ship Positions

Vision

Owner: INTREPID SHIP MANAGEMENT, JACKSONVILLE, FL. More information available from US FCC via Universal Licensing System and Coast Guard Vessel Documentation Center.

Last reported at 2015-May-27 03:23 UTC. Time now 2015-May-27 03:50 UTC.
Position N 47°16' W 122°24'.

Length 199 m; draft 7.4 m.

Type: Towing. MMSI: 366904000.

Date/timePositionNaut miles runAvg speedWind from/ knotsBaromVisibWave heightAir tempDewpointWater temp
2015-May-27 03:23N 47°16' W 122°24'2 1.9
2015-May-27 02:33N 47°17' W 122°25'4 7.5
2015-May-27 02:05N 47°21' W 122°26'5 9.8
2015-May-27 01:33N 47°26' W 122°24'311.8
2015-May-27 01:20N 47°28' W 122°25'911.9
2015-May-27 00:33N 47°37' W 122°28'111.1
2015-May-27 00:29N 47°38' W 122°28'9 9.9
2015-May-26 23:33N 47°47' W 122°27'111.6
2015-May-26 23:29N 47°48' W 122°27'1010.8
2015-May-26 22:33N 47°57' W 122°33'310.0
2015-May-26 22:14N 47°59' W 122°36'710.6
2015-May-26 21:31N 48°06' W 122°40'1010.5
2015-May-26 20:32N 48°15' W 122°48'1212.4
2015-May-26 19:33N 48°27' W 122°44'7 2.3
2015-May-26 16:25N 48°31' W 122°35'0 0.0
2015-May-26 16:22N 48°31' W 122°35'0 0.0
2015-May-26 15:28N 48°31' W 122°35'0 0.0
2015-May-26 14:28N 48°31' W 122°35'0 0.0
2015-May-26 13:28N 48°31' W 122°35'0 0.0
2015-May-26 12:49N 48°31' W 122°35'0 0.0
2015-May-26 12:28N 48°31' W 122°35'0 0.0
2015-May-26 11:28N 48°31' W 122°35'0 0.0
2015-May-26 10:28N 48°31' W 122°35'0 0.0
2015-May-26 09:28N 48°31' W 122°35'0 0.0
2015-May-26 08:28N 48°31' W 122°35'0 0.0
2015-May-26 07:28N 48°31' W 122°35'0 0.0
2015-May-26 06:28N 48°31' W 122°35'0 0.0
2015-May-26 05:28N 48°31' W 122°35'0 0.0
2015-May-26 04:28N 48°31' W 122°35'0 0.0
2015-May-26 03:28N 48°31' W 122°35'0 0.0
2015-May-26 02:28N 48°31' W 122°35'0 0.0
2015-May-26 01:28N 48°31' W 122°35'0 0.0
2015-May-26 00:28N 48°31' W 122°35'0 0.0
2015-May-25 23:28N 48°31' W 122°35'0 0.0
2015-May-25 22:28N 48°31' W 122°35'0 0.0
2015-May-25 21:28N 48°31' W 122°35'0 0.0
2015-May-25 20:28N 48°31' W 122°35'0 0.0
2015-May-25 19:22N 48°31' W 122°35'0 0.0
2015-May-25 18:28N 48°31' W 122°35'0 0.0
2015-May-25 17:28N 48°31' W 122°35'0 0.0
2015-May-25 16:28N 48°31' W 122°35'0 0.0
2015-May-25 15:28N 48°31' W 122°35'0 0.0
2015-May-25 14:28N 48°31' W 122°35'0 0.0
2015-May-25 13:28N 48°31' W 122°35'0 0.0
2015-May-25 12:28N 48°31' W 122°35'0 0.0
2015-May-25 11:28N 48°31' W 122°35'0 0.0
2015-May-25 10:28N 48°31' W 122°35'0 0.0
2015-May-25 09:28N 48°31' W 122°35'0 0.0
2015-May-25 08:28N 48°31' W 122°35'0 0.0
2015-May-25 07:28N 48°31' W 122°35'0 0.0
2015-May-25 06:28N 48°31' W 122°35'0 0.0
2015-May-25 05:28N 48°31' W 122°35'0 0.0
2015-May-25 04:28N 48°31' W 122°35'0 0.0
2015-May-25 03:28N 48°31' W 122°35'0 0.0
2015-May-25 02:28N 48°31' W 122°35'0 0.0
2015-May-25 01:28N 48°31' W 122°35'0 0.0
2015-May-25 00:28N 48°31' W 122°35'0 0.0
2015-May-24 23:28N 48°31' W 122°35'0 0.0
2015-May-24 22:28N 48°31' W 122°35'0 0.0
2015-May-24 21:28N 48°31' W 122°35'0 0.0
2015-May-24 20:28N 48°31' W 122°35'0 0.0
2015-May-24 19:28N 48°31' W 122°35'0 0.0
2015-May-24 18:28N 48°31' W 122°35'0 0.0
2015-May-24 17:28N 48°31' W 122°35'0 0.0
2015-May-24 16:28N 48°31' W 122°35'0 0.0
2015-May-24 15:28N 48°31' W 122°35'0 0.0
2015-May-24 14:22N 48°31' W 122°35'0 0.0
2015-May-24 13:28N 48°31' W 122°35'0 0.0
2015-May-24 12:28N 48°31' W 122°35'0 0.0
2015-May-24 11:28N 48°31' W 122°35'0 0.0
2015-May-24 10:28N 48°31' W 122°35'0 0.0
2015-May-24 09:28N 48°31' W 122°35'0 0.0
2015-May-24 08:22N 48°31' W 122°35'0 0.0
2015-May-24 07:28N 48°31' W 122°35'0 0.0
2015-May-24 06:28N 48°31' W 122°35'0 0.0
2015-May-24 05:28N 48°31' W 122°35'0 0.0
2015-May-24 04:28N 48°31' W 122°35'0 0.0
2015-May-24 03:28N 48°31' W 122°35'0 0.0
2015-May-24 02:28N 48°31' W 122°35'0 0.0
2015-May-24 01:28N 48°31' W 122°35'0 0.0
2015-May-24 00:28N 48°31' W 122°35'0 0.0
2015-May-23 23:28N 48°31' W 122°35'1 0.6
2015-May-23 22:29N 48°31' W 122°35'0 0.0
2015-May-23 21:29N 48°31' W 122°35'0 0.0
2015-May-23 20:38N 48°31' W 122°35'0 0.1
2015-May-23 20:29N 48°31' W 122°35'0 0.0
2015-May-23 19:32N 48°31' W 122°35'0 0.2
2015-May-23 18:33N 48°31' W 122°35'6 7.9
2015-May-23 17:48N 48°37' W 122°36'312.6
2015-May-23 17:33N 48°39' W 122°40'612.8
2015-May-23 17:07N 48°43' W 122°45'712.3
2015-May-23 16:33N 48°47' W 122°54'1312.9
2015-May-23 15:33N 48°55' W 123°09'1212.2
2015-May-23 14:33N 49°04' W 123°23'1111.2
2015-May-23 13:33N 49°15' W 123°21'10 9.5
2015-May-23 12:33N 49°18' W 123°07'6 6.0
2015-May-23 11:33N 49°17' W 122°58'0 0.0
2015-May-23 10:33N 49°17' W 122°58'0 0.0
2015-May-23 09:33N 49°17' W 122°58'0 0.0
2015-May-23 08:33N 49°17' W 122°58'0 0.0
2015-May-23 07:33N 49°17' W 122°58'0 0.0
2015-May-23 06:33N 49°17' W 122°58'0 0.0
2015-May-23 05:33N 49°17' W 122°58'0 0.0
2015-May-23 04:33N 49°17' W 122°58'0 0.0
2015-May-23 03:33N 49°17' W 122°58'0 0.0
2015-May-23 02:33N 49°17' W 122°58'0 0.0
2015-May-23 01:33N 49°17' W 122°58'0 0.0
2015-May-23 00:33N 49°17' W 122°58'0 0.0
2015-May-22 23:33N 49°17' W 122°58'0 0.0
2015-May-22 22:30N 49°17' W 122°58'0 0.0
2015-May-22 21:30N 49°17' W 122°58'0 0.0
2015-May-22 20:30N 49°17' W 122°58'0 0.0
2015-May-22 19:33N 49°17' W 122°58'0 0.0
2015-May-22 18:33N 49°17' W 122°58'0 0.0
2015-May-22 17:33N 49°17' W 122°58'0 0.0
2015-May-22 16:33N 49°17' W 122°58'0 0.0
2015-May-22 15:33N 49°17' W 122°58'0 0.0
2015-May-22 14:33N 49°17' W 122°58'0 0.0
2015-May-22 13:33N 49°17' W 122°58'0 0.0
2015-May-22 12:33N 49°17' W 122°58'0 0.0
2015-May-22 11:33N 49°17' W 122°58'0 0.0
2015-May-22 10:33N 49°17' W 122°58'0 0.0
2015-May-22 09:33N 49°17' W 122°58'0 0.0
2015-May-22 08:33N 49°17' W 122°58'0 0.0
2015-May-22 07:33N 49°17' W 122°58'0 0.0
2015-May-22 06:33N 49°17' W 122°58'0 0.0
2015-May-22 05:33N 49°17' W 122°58'0 0.0
2015-May-22 04:33N 49°17' W 122°58'0 0.0
2015-May-22 03:33N 49°17' W 122°58'0 0.0
2015-May-22 02:33N 49°17' W 122°58'0 0.0
2015-May-22 01:33N 49°17' W 122°58'0 0.0
2015-May-22 00:33N 49°17' W 122°58'0 0.0
2015-May-21 23:33N 49°17' W 122°58'0 0.0
2015-May-21 22:33N 49°17' W 122°58'0 0.0
2015-May-21 21:33N 49°17' W 122°58'0 0.0
2015-May-21 20:33N 49°17' W 122°58'0 0.0
2015-May-21 19:33N 49°17' W 122°58'0 0.0
2015-May-21 18:33N 49°17' W 122°58'0 0.0
2015-May-21 17:33N 49°17' W 122°58'0 0.0
2015-May-21 16:33N 49°17' W 122°58'0 0.0
2015-May-21 15:33N 49°17' W 122°58'3 3.1
2015-May-21 14:33N 49°18' W 123°02'5 4.8
2015-May-21 13:33N 49°19' W 123°09'6 6.2
2015-May-21 12:33N 49°16' W 123°18'8 7.8
2015-May-21 11:33N 49°08' W 123°20'7 7.0
2015-May-21 10:33N 49°02' W 123°16'9 9.0
2015-May-21 09:33N 48°56' W 123°06'1211.9
2015-May-21 08:33N 48°48' W 122°53'1111.3
2015-May-21 07:33N 48°40' W 122°41'10 9.7
2015-May-21 06:33N 48°31' W 122°35'1 0.5
2015-May-21 05:27N 48°31' W 122°35'0 0.0
2015-May-21 04:33N 48°31' W 122°35'0 0.0
2015-May-21 03:33N 48°31' W 122°35'0 0.0
2015-May-21 02:33N 48°31' W 122°35'0 0.0
2015-May-21 01:33N 48°31' W 122°35'0 0.0
2015-May-21 00:33N 48°31' W 122°35'0 0.0
2015-May-20 23:33N 48°31' W 122°35'0 0.0
2015-May-20 22:33N 48°31' W 122°35'0 0.0
2015-May-20 21:33N 48°31' W 122°35'0 0.0
2015-May-20 20:33N 48°31' W 122°35'0 0.0
2015-May-20 19:33N 48°31' W 122°35'0 0.0
2015-May-20 18:33N 48°31' W 122°35'0 0.0
2015-May-20 17:33N 48°31' W 122°35'0 0.0
2015-May-20 16:33N 48°31' W 122°35'0 0.0
2015-May-20 15:33N 48°31' W 122°35'0 0.0
2015-May-20 14:33N 48°31' W 122°35'0 0.0
2015-May-20 13:33N 48°31' W 122°35'0 0.0
2015-May-20 12:33N 48°31' W 122°35'0 0.0
2015-May-20 11:33N 48°31' W 122°35'0 0.0
2015-May-20 10:33N 48°31' W 122°35'0 0.0
2015-May-20 09:33N 48°31' W 122°35'0 0.0
2015-May-20 08:21N 48°31' W 122°35'0 0.0
2015-May-20 07:33N 48°31' W 122°35'0 0.0
2015-May-20 06:33N 48°31' W 122°35'0 0.0
2015-May-20 05:33N 48°31' W 122°35'0 0.0
2015-May-20 04:33N 48°31' W 122°35'0 0.0
2015-May-20 03:33N 48°31' W 122°35'0 0.0
2015-May-20 02:33N 48°31' W 122°35'0 0.0
2015-May-20 01:33N 48°31' W 122°35'0 0.0
2015-May-20 00:33N 48°31' W 122°35'1 1.1
2015-May-19 23:30N 48°31' W 122°34'0 0.2
2015-May-19 22:33N 48°31' W 122°34'0 0.1
2015-May-19 21:30N 48°31' W 122°34'0 0.1
2015-May-19 20:33N 48°31' W 122°34'0 0.1
2015-May-19 19:30N 48°31' W 122°34'0 0.0
2015-May-19 18:33N 48°31' W 122°34'0 0.0
2015-May-19 17:33N 48°31' W 122°34'0 0.0
2015-May-19 16:33N 48°31' W 122°34'0 0.0
2015-May-19 15:33N 48°31' W 122°34'0 0.1
2015-May-19 14:33N 48°31' W 122°34'0 0.1
2015-May-19 13:33N 48°31' W 122°34'0 0.1
2015-May-19 12:33N 48°31' W 122°34'0 0.1
2015-May-19 11:24N 48°31' W 122°34'0 0.0
2015-May-19 10:30N 48°31' W 122°34'0 0.1
2015-May-19 09:33N 48°31' W 122°34'0 0.1
2015-May-19 08:21N 48°31' W 122°34'0 0.0
2015-May-19 07:03N 48°31' W 122°34'0 0.0
2015-May-19 06:15N 48°31' W 122°34'0 0.0
2015-May-19 05:12N 48°31' W 122°34'0 0.3
2015-May-19 04:27N 48°31' W 122°34'0 0.1
2015-May-19 03:33N 48°31' W 122°34'0 0.1
2015-May-19 02:33N 48°31' W 122°34'0 0.2
2015-May-19 01:33N 48°31' W 122°34'0 0.1
2015-May-19 00:09N 48°31' W 122°34'0 0.4
2015-May-18 23:30N 48°31' W 122°34'0 0.0
2015-May-18 22:30N 48°31' W 122°34'0 0.2
2015-May-18 21:33N 48°31' W 122°34'0 0.0
2015-May-18 20:21N 48°31' W 122°34'0 0.1
2015-May-18 19:27N 48°31' W 122°34'0 0.1
2015-May-18 18:33N 48°31' W 122°34'7 7.3
2015-May-18 17:33N 48°38' W 122°39'514.7
2015-May-18 17:11N 48°42' W 122°44'913.8
2015-May-18 16:32N 48°48' W 122°55'1414.2
2015-May-18 15:33N 48°56' W 123°12'1312.5
2015-May-18 14:33N 49°06' W 123°23'1312.4
2015-May-18 13:30N 49°18' W 123°17'9 9.5
2015-May-18 12:32N 49°18' W 123°03'3 0.2
2015-May-17 21:19N 49°17' W 122°58'0 0.0
2015-May-17 18:31N 49°17' W 122°58'0 0.0
2015-May-17 17:31N 49°17' W 122°58'0 0.0
2015-May-17 16:31N 49°17' W 122°58'0 0.0
2015-May-17 15:31N 49°17' W 122°58'0 0.0
2015-May-17 14:31N 49°17' W 122°58'0 0.0
2015-May-17 13:31N 49°17' W 122°58'0 0.0
2015-May-17 12:31N 49°17' W 122°58'0 0.0
2015-May-17 11:31N 49°17' W 122°58'0 0.0
2015-May-17 10:31N 49°17' W 122°58'0 0.0
2015-May-17 09:31N 49°17' W 122°58'0 0.0
2015-May-17 08:31N 49°17' W 122°58'0 0.0
2015-May-17 07:31N 49°17' W 122°58'0 0.0
2015-May-17 06:31N 49°17' W 122°58'0 0.0
2015-May-17 05:31N 49°17' W 122°58'0 0.0
2015-May-17 04:31N 49°17' W 122°58'0 0.0
2015-May-17 03:28N 49°17' W 122°58'  
Track history (hours):
 
Tides and Currents Weather Stations Pressure Air Temp Water Temp Dewpoint Dewpoint Depression Visibility Wind Speed Wind Dir Waves Ship Positions

Vision

Owner: INTREPID SHIP MANAGEMENT, JACKSONVILLE, FL. More information available from US FCC via Universal Licensing System and Coast Guard Vessel Documentation Center.

Last reported at 2015-May-27 03:23 UTC. Time now 2015-May-27 03:50 UTC.
Position N 47°16' W 122°24'.

Length 199 m; draft 7.4 m.

Type: Towing. MMSI: 366904000.

Date/timePositionNaut miles runAvg speedWind from/ knotsBaromVisibWave heightAir tempDewpointWater temp
2015-May-27 03:23N 47°16' W 122°24'2 1.9
2015-May-27 02:33N 47°17' W 122°25'4 7.5
2015-May-27 02:05N 47°21' W 122°26'5 9.8
2015-May-27 01:33N 47°26' W 122°24'311.8
2015-May-27 01:20N 47°28' W 122°25'911.9
2015-May-27 00:33N 47°37' W 122°28'111.1
2015-May-27 00:29N 47°38' W 122°28'9 9.9
2015-May-26 23:33N 47°47' W 122°27'111.6
2015-May-26 23:29N 47°48' W 122°27'1010.8
2015-May-26 22:33N 47°57' W 122°33'310.0
2015-May-26 22:14N 47°59' W 122°36'710.6
2015-May-26 21:31N 48°06' W 122°40'1010.5
2015-May-26 20:32N 48°15' W 122°48'1212.4
2015-May-26 19:33N 48°27' W 122°44'7 2.3
2015-May-26 16:25N 48°31' W 122°35'0 0.0
2015-May-26 16:22N 48°31' W 122°35'0 0.0
2015-May-26 15:28N 48°31' W 122°35'0 0.0
2015-May-26 14:28N 48°31' W 122°35'0 0.0
2015-May-26 13:28N 48°31' W 122°35'0 0.0
2015-May-26 12:49N 48°31' W 122°35'0 0.0
2015-May-26 12:28N 48°31' W 122°35'0 0.0
2015-May-26 11:28N 48°31' W 122°35'0 0.0
2015-May-26 10:28N 48°31' W 122°35'0 0.0
2015-May-26 09:28N 48°31' W 122°35'0 0.0
2015-May-26 08:28N 48°31' W 122°35'0 0.0
2015-May-26 07:28N 48°31' W 122°35'0 0.0
2015-May-26 06:28N 48°31' W 122°35'0 0.0
2015-May-26 05:28N 48°31' W 122°35'0 0.0
2015-May-26 04:28N 48°31' W 122°35'0 0.0
2015-May-26 03:28N 48°31' W 122°35'0 0.0
2015-May-26 02:28N 48°31' W 122°35'0 0.0
2015-May-26 01:28N 48°31' W 122°35'0 0.0
2015-May-26 00:28N 48°31' W 122°35'0 0.0
2015-May-25 23:28N 48°31' W 122°35'0 0.0
2015-May-25 22:28N 48°31' W 122°35'0 0.0
2015-May-25 21:28N 48°31' W 122°35'0 0.0
2015-May-25 20:28N 48°31' W 122°35'0 0.0
2015-May-25 19:22N 48°31' W 122°35'0 0.0
2015-May-25 18:28N 48°31' W 122°35'0 0.0
2015-May-25 17:28N 48°31' W 122°35'0 0.0
2015-May-25 16:28N 48°31' W 122°35'0 0.0
2015-May-25 15:28N 48°31' W 122°35'0 0.0
2015-May-25 14:28N 48°31' W 122°35'0 0.0
2015-May-25 13:28N 48°31' W 122°35'0 0.0
2015-May-25 12:28N 48°31' W 122°35'0 0.0
2015-May-25 11:28N 48°31' W 122°35'0 0.0
2015-May-25 10:28N 48°31' W 122°35'0 0.0
2015-May-25 09:28N 48°31' W 122°35'0 0.0
2015-May-25 08:28N 48°31' W 122°35'0 0.0
2015-May-25 07:28N 48°31' W 122°35'0 0.0
2015-May-25 06:28N 48°31' W 122°35'0 0.0
2015-May-25 05:28N 48°31' W 122°35'0 0.0
2015-May-25 04:28N 48°31' W 122°35'0 0.0
2015-May-25 03:28N 48°31' W 122°35'0 0.0
2015-May-25 02:28N 48°31' W 122°35'0 0.0
2015-May-25 01:28N 48°31' W 122°35'0 0.0
2015-May-25 00:28N 48°31' W 122°35'0 0.0
2015-May-24 23:28N 48°31' W 122°35'0 0.0
2015-May-24 22:28N 48°31' W 122°35'0 0.0
2015-May-24 21:28N 48°31' W 122°35'0 0.0
2015-May-24 20:28N 48°31' W 122°35'0 0.0
2015-May-24 19:28N 48°31' W 122°35'0 0.0
2015-May-24 18:28N 48°31' W 122°35'0 0.0
2015-May-24 17:28N 48°31' W 122°35'0 0.0
2015-May-24 16:28N 48°31' W 122°35'0 0.0
2015-May-24 15:28N 48°31' W 122°35'0 0.0
2015-May-24 14:22N 48°31' W 122°35'0 0.0
2015-May-24 13:28N 48°31' W 122°35'0 0.0
2015-May-24 12:28N 48°31' W 122°35'0 0.0
2015-May-24 11:28N 48°31' W 122°35'0 0.0
2015-May-24 10:28N 48°31' W 122°35'0 0.0
2015-May-24 09:28N 48°31' W 122°35'0 0.0
2015-May-24 08:22N 48°31' W 122°35'0 0.0
2015-May-24 07:28N 48°31' W 122°35'0 0.0
2015-May-24 06:28N 48°31' W 122°35'0 0.0
2015-May-24 05:28N 48°31' W 122°35'0 0.0
2015-May-24 04:28N 48°31' W 122°35'0 0.0
2015-May-24 03:28N 48°31' W 122°35'0 0.0
2015-May-24 02:28N 48°31' W 122°35'0 0.0
2015-May-24 01:28N 48°31' W 122°35'0 0.0
2015-May-24 00:28N 48°31' W 122°35'0 0.0
2015-May-23 23:28N 48°31' W 122°35'1 0.6
2015-May-23 22:29N 48°31' W 122°35'0 0.0
2015-May-23 21:29N 48°31' W 122°35'0 0.0
2015-May-23 20:38N 48°31' W 122°35'0 0.1
2015-May-23 20:29N 48°31' W 122°35'0 0.0
2015-May-23 19:32N 48°31' W 122°35'0 0.2
2015-May-23 18:33N 48°31' W 122°35'6 7.9
2015-May-23 17:48N 48°37' W 122°36'312.6
2015-May-23 17:33N 48°39' W 122°40'612.8
2015-May-23 17:07N 48°43' W 122°45'712.3
2015-May-23 16:33N 48°47' W 122°54'1312.9
2015-May-23 15:33N 48°55' W 123°09'1212.2
2015-May-23 14:33N 49°04' W 123°23'1111.2
2015-May-23 13:33N 49°15' W 123°21'10 9.5
2015-May-23 12:33N 49°18' W 123°07'6 6.0
2015-May-23 11:33N 49°17' W 122°58'0 0.0
2015-May-23 10:33N 49°17' W 122°58'0 0.0
2015-May-23 09:33N 49°17' W 122°58'0 0.0
2015-May-23 08:33N 49°17' W 122°58'0 0.0
2015-May-23 07:33N 49°17' W 122°58'0 0.0
2015-May-23 06:33N 49°17' W 122°58'0 0.0
2015-May-23 05:33N 49°17' W 122°58'0 0.0
2015-May-23 04:33N 49°17' W 122°58'0 0.0
2015-May-23 03:33N 49°17' W 122°58'0 0.0
2015-May-23 02:33N 49°17' W 122°58'0 0.0
2015-May-23 01:33N 49°17' W 122°58'0 0.0
2015-May-23 00:33N 49°17' W 122°58'0 0.0
2015-May-22 23:33N 49°17' W 122°58'0 0.0
2015-May-22 22:30N 49°17' W 122°58'0 0.0
2015-May-22 21:30N 49°17' W 122°58'0 0.0
2015-May-22 20:30N 49°17' W 122°58'0 0.0
2015-May-22 19:33N 49°17' W 122°58'0 0.0
2015-May-22 18:33N 49°17' W 122°58'0 0.0
2015-May-22 17:33N 49°17' W 122°58'0 0.0
2015-May-22 16:33N 49°17' W 122°58'0 0.0
2015-May-22 15:33N 49°17' W 122°58'0 0.0
2015-May-22 14:33N 49°17' W 122°58'0 0.0
2015-May-22 13:33N 49°17' W 122°58'0 0.0
2015-May-22 12:33N 49°17' W 122°58'0 0.0
2015-May-22 11:33N 49°17' W 122°58'0 0.0
2015-May-22 10:33N 49°17' W 122°58'0 0.0
2015-May-22 09:33N 49°17' W 122°58'0 0.0
2015-May-22 08:33N 49°17' W 122°58'0 0.0
2015-May-22 07:33N 49°17' W 122°58'0 0.0
2015-May-22 06:33N 49°17' W 122°58'0 0.0
2015-May-22 05:33N 49°17' W 122°58'0 0.0
2015-May-22 04:33N 49°17' W 122°58'0 0.0
2015-May-22 03:33N 49°17' W 122°58'0 0.0
2015-May-22 02:33N 49°17' W 122°58'0 0.0
2015-May-22 01:33N 49°17' W 122°58'0 0.0
2015-May-22 00:33N 49°17' W 122°58'0 0.0
2015-May-21 23:33N 49°17' W 122°58'0 0.0
2015-May-21 22:33N 49°17' W 122°58'0 0.0
2015-May-21 21:33N 49°17' W 122°58'0 0.0
2015-May-21 20:33N 49°17' W 122°58'0 0.0
2015-May-21 19:33N 49°17' W 122°58'0 0.0
2015-May-21 18:33N 49°17' W 122°58'0 0.0
2015-May-21 17:33N 49°17' W 122°58'0 0.0
2015-May-21 16:33N 49°17' W 122°58'0 0.0
2015-May-21 15:33N 49°17' W 122°58'3 3.1
2015-May-21 14:33N 49°18' W 123°02'5 4.8
2015-May-21 13:33N 49°19' W 123°09'6 6.2
2015-May-21 12:33N 49°16' W 123°18'8 7.8
2015-May-21 11:33N 49°08' W 123°20'7 7.0
2015-May-21 10:33N 49°02' W 123°16'9 9.0
2015-May-21 09:33N 48°56' W 123°06'1211.9
2015-May-21 08:33N 48°48' W 122°53'1111.3
2015-May-21 07:33N 48°40' W 122°41'10 9.7
2015-May-21 06:33N 48°31' W 122°35'1 0.5
2015-May-21 05:27N 48°31' W 122°35'0 0.0
2015-May-21 04:33N 48°31' W 122°35'0 0.0
2015-May-21 03:33N 48°31' W 122°35'0 0.0
2015-May-21 02:33N 48°31' W 122°35'0 0.0
2015-May-21 01:33N 48°31' W 122°35'0 0.0
2015-May-21 00:33N 48°31' W 122°35'0 0.0
2015-May-20 23:33N 48°31' W 122°35'0 0.0
2015-May-20 22:33N 48°31' W 122°35'0 0.0
2015-May-20 21:33N 48°31' W 122°35'0 0.0
2015-May-20 20:33N 48°31' W 122°35'0 0.0
2015-May-20 19:33N 48°31' W 122°35'0 0.0
2015-May-20 18:33N 48°31' W 122°35'0 0.0
2015-May-20 17:33N 48°31' W 122°35'0 0.0
2015-May-20 16:33N 48°31' W 122°35'0 0.0
2015-May-20 15:33N 48°31' W 122°35'0 0.0
2015-May-20 14:33N 48°31' W 122°35'0 0.0
2015-May-20 13:33N 48°31' W 122°35'0 0.0
2015-May-20 12:33N 48°31' W 122°35'0 0.0
2015-May-20 11:33N 48°31' W 122°35'0 0.0
2015-May-20 10:33N 48°31' W 122°35'0 0.0
2015-May-20 09:33N 48°31' W 122°35'0 0.0
2015-May-20 08:21N 48°31' W 122°35'0 0.0
2015-May-20 07:33N 48°31' W 122°35'0 0.0
2015-May-20 06:33N 48°31' W 122°35'0 0.0
2015-May-20 05:33N 48°31' W 122°35'0 0.0
2015-May-20 04:33N 48°31' W 122°35'0 0.0
2015-May-20 03:33N 48°31' W 122°35'0 0.0
2015-May-20 02:33N 48°31' W 122°35'0 0.0
2015-May-20 01:33N 48°31' W 122°35'0 0.0
2015-May-20 00:33N 48°31' W 122°35'1 1.1
2015-May-19 23:30N 48°31' W 122°34'0 0.2
2015-May-19 22:33N 48°31' W 122°34'0 0.1
2015-May-19 21:30N 48°31' W 122°34'0 0.1
2015-May-19 20:33N 48°31' W 122°34'0 0.1
2015-May-19 19:30N 48°31' W 122°34'0 0.0
2015-May-19 18:33N 48°31' W 122°34'0 0.0
2015-May-19 17:33N 48°31' W 122°34'0 0.0
2015-May-19 16:33N 48°31' W 122°34'0 0.0
2015-May-19 15:33N 48°31' W 122°34'0 0.1
2015-May-19 14:33N 48°31' W 122°34'0 0.1
2015-May-19 13:33N 48°31' W 122°34'0 0.1
2015-May-19 12:33N 48°31' W 122°34'0 0.1
2015-May-19 11:24N 48°31' W 122°34'0 0.0
2015-May-19 10:30N 48°31' W 122°34'0 0.1
2015-May-19 09:33N 48°31' W 122°34'0 0.1
2015-May-19 08:21N 48°31' W 122°34'0 0.0
2015-May-19 07:03N 48°31' W 122°34'0 0.0
2015-May-19 06:15N 48°31' W 122°34'0 0.0
2015-May-19 05:12N 48°31' W 122°34'0 0.3
2015-May-19 04:27N 48°31' W 122°34'0 0.1
2015-May-19 03:33N 48°31' W 122°34'0 0.1
2015-May-19 02:33N 48°31' W 122°34'0 0.2
2015-May-19 01:33N 48°31' W 122°34'0 0.1
2015-May-19 00:09N 48°31' W 122°34'0 0.4
2015-May-18 23:30N 48°31' W 122°34'0 0.0
2015-May-18 22:30N 48°31' W 122°34'0 0.2
2015-May-18 21:33N 48°31' W 122°34'0 0.0
2015-May-18 20:21N 48°31' W 122°34'0 0.1
2015-May-18 19:27N 48°31' W 122°34'0 0.1
2015-May-18 18:33N 48°31' W 122°34'7 7.3
2015-May-18 17:33N 48°38' W 122°39'514.7
2015-May-18 17:11N 48°42' W 122°44'913.8
2015-May-18 16:32N 48°48' W 122°55'1414.2
2015-May-18 15:33N 48°56' W 123°12'1312.5
2015-May-18 14:33N 49°06' W 123°23'1312.4
2015-May-18 13:30N 49°18' W 123°17'9 9.5
2015-May-18 12:32N 49°18' W 123°03'3 0.2
2015-May-17 21:19N 49°17' W 122°58'0 0.0
2015-May-17 18:31N 49°17' W 122°58'0 0.0
2015-May-17 17:31N 49°17' W 122°58'0 0.0
2015-May-17 16:31N 49°17' W 122°58'0 0.0
2015-May-17 15:31N 49°17' W 122°58'0 0.0
2015-May-17 14:31N 49°17' W 122°58'0 0.0
2015-May-17 13:31N 49°17' W 122°58'0 0.0
2015-May-17 12:31N 49°17' W 122°58'0 0.0
2015-May-17 11:31N 49°17' W 122°58'0 0.0
2015-May-17 10:31N 49°17' W 122°58'0 0.0
2015-May-17 09:31N 49°17' W 122°58'0 0.0
2015-May-17 08:31N 49°17' W 122°58'0 0.0
2015-May-17 07:31N 49°17' W 122°58'0 0.0
2015-May-17 06:31N 49°17' W 122°58'0 0.0
2015-May-17 05:31N 49°17' W 122°58'0 0.0
2015-May-17 04:31N 49°17' W 122°58'0 0.0
2015-May-17 03:28N 49°17' W 122°58'  

Dump ship's entire track history